sensor_id;sensor_type;location;lat;lon;timestamp;P1;durP1;ratioP1;P2;durP2;ratioP2
438;SDS011;206;48.782;9.252;2022-09-13T00:01:04;5.27;;;4.97;;
438;SDS011;206;48.782;9.252;2022-09-13T00:03:30;7.80;;;5.47;;
438;SDS011;206;48.782;9.252;2022-09-13T00:05:56;11.43;;;5.50;;
438;SDS011;206;48.782;9.252;2022-09-13T00:08:22;4.77;;;4.47;;
438;SDS011;206;48.782;9.252;2022-09-13T00:10:48;6.77;;;5.30;;
438;SDS011;206;48.782;9.252;2022-09-13T00:13:14;5.73;;;5.43;;
438;SDS011;206;48.782;9.252;2022-09-13T00:15:45;6.60;;;5.43;;
438;SDS011;206;48.782;9.252;2022-09-13T00:18:12;8.33;;;5.53;;
438;SDS011;206;48.782;9.252;2022-09-13T00:20:38;9.47;;;5.87;;
438;SDS011;206;48.782;9.252;2022-09-13T00:23:04;7.60;;;6.10;;
438;SDS011;206;48.782;9.252;2022-09-13T00:25:29;9.27;;;5.80;;
438;SDS011;206;48.782;9.252;2022-09-13T00:27:55;7.10;;;5.83;;
438;SDS011;206;48.782;9.252;2022-09-13T00:30:21;6.93;;;6.37;;
438;SDS011;206;48.782;9.252;2022-09-13T00:32:46;7.73;;;5.97;;
438;SDS011;206;48.782;9.252;2022-09-13T00:35:12;9.60;;;6.10;;
438;SDS011;206;48.782;9.252;2022-09-13T00:37:37;8.20;;;6.73;;
438;SDS011;206;48.782;9.252;2022-09-13T00:40:04;10.00;;;5.33;;
438;SDS011;206;48.782;9.252;2022-09-13T00:42:30;6.90;;;6.10;;
438;SDS011;206;48.782;9.252;2022-09-13T00:45:00;6.07;;;5.37;;
438;SDS011;206;48.782;9.252;2022-09-13T00:53:15;6.20;;;5.77;;
438;SDS011;206;48.782;9.252;2022-09-13T00:56:14;4.70;;;4.40;;
438;SDS011;206;48.782;9.252;2022-09-13T00:58:48;6.10;;;5.27;;
438;SDS011;206;48.782;9.252;2022-09-13T01:01:18;4.93;;;4.50;;
438;SDS011;206;48.782;9.252;2022-09-13T01:03:47;8.97;;;5.10;;
438;SDS011;206;48.782;9.252;2022-09-13T01:06:16;7.60;;;4.80;;
438;SDS011;206;48.782;9.252;2022-09-13T01:08:45;6.37;;;6.00;;
438;SDS011;206;48.782;9.252;2022-09-13T01:12:00;8.73;;;6.80;;
438;SDS011;206;48.782;9.252;2022-09-13T01:14:15;12.43;;;6.37;;
438;SDS011;206;48.782;9.252;2022-09-13T01:16:42;7.00;;;6.50;;
438;SDS011;206;48.782;9.252;2022-09-13T01:19:08;6.10;;;5.80;;
438;SDS011;206;48.782;9.252;2022-09-13T01:30:33;11.50;;;7.53;;
438;SDS011;206;48.782;9.252;2022-09-13T01:39:02;10.57;;;7.43;;
438;SDS011;206;48.782;9.252;2022-09-13T01:41:53;14.00;;;7.97;;
438;SDS011;206;48.782;9.252;2022-09-13T01:44:57;11.60;;;7.33;;
438;SDS011;206;48.782;9.252;2022-09-13T01:50:21;10.90;;;7.43;;
438;SDS011;206;48.782;9.252;2022-09-13T01:52:59;13.17;;;7.30;;
438;SDS011;206;48.782;9.252;2022-09-13T02:00:48;11.03;;;7.63;;
438;SDS011;206;48.782;9.252;2022-09-13T02:03:22;10.23;;;7.67;;
438;SDS011;206;48.782;9.252;2022-09-13T02:05:56;10.07;;;7.20;;
438;SDS011;206;48.782;9.252;2022-09-13T02:08:31;11.10;;;8.13;;
438;SDS011;206;48.782;9.252;2022-09-13T02:11:08;12.63;;;6.70;;
438;SDS011;206;48.782;9.252;2022-09-13T02:13:39;12.00;;;6.73;;
438;SDS011;206;48.782;9.252;2022-09-13T02:16:11;6.10;;;5.60;;
438;SDS011;206;48.782;9.252;2022-09-13T02:18:43;8.17;;;6.90;;
438;SDS011;206;48.782;9.252;2022-09-13T02:21:21;8.30;;;5.00;;
438;SDS011;206;48.782;9.252;2022-09-13T02:23:52;6.00;;;5.30;;
438;SDS011;206;48.782;9.252;2022-09-13T02:26:20;5.60;;;5.30;;
438;SDS011;206;48.782;9.252;2022-09-13T02:28:48;8.47;;;7.13;;
438;SDS011;206;48.782;9.252;2022-09-13T02:31:41;8.30;;;5.90;;
438;SDS011;206;48.782;9.252;2022-09-13T02:34:11;8.90;;;5.30;;
438;SDS011;206;48.782;9.252;2022-09-13T02:36:43;7.80;;;6.17;;
438;SDS011;206;48.782;9.252;2022-09-13T02:39:13;6.50;;;6.10;;
438;SDS011;206;48.782;9.252;2022-09-13T02:41:43;6.03;;;5.73;;
438;SDS011;206;48.782;9.252;2022-09-13T02:44:36;6.30;;;5.97;;
438;SDS011;206;48.782;9.252;2022-09-13T02:50:51;5.90;;;5.60;;
438;SDS011;206;48.782;9.252;2022-09-13T02:58:17;9.47;;;6.20;;
438;SDS011;206;48.782;9.252;2022-09-13T03:00:46;7.50;;;5.93;;
438;SDS011;206;48.782;9.252;2022-09-13T03:03:13;7.80;;;5.63;;
438;SDS011;206;48.782;9.252;2022-09-13T03:05:40;9.03;;;6.70;;
438;SDS011;206;48.782;9.252;2022-09-13T03:08:08;9.37;;;6.77;;
438;SDS011;206;48.782;9.252;2022-09-13T03:10:47;10.13;;;6.70;;
438;SDS011;206;48.782;9.252;2022-09-13T03:16:31;8.97;;;6.03;;
438;SDS011;206;48.782;9.252;2022-09-13T03:30:05;9.20;;;6.30;;
438;SDS011;206;48.782;9.252;2022-09-13T03:35:55;10.87;;;6.50;;
438;SDS011;206;48.782;9.252;2022-09-13T03:38:34;10.60;;;6.43;;
438;SDS011;206;48.782;9.252;2022-09-13T03:41:29;10.43;;;6.10;;
438;SDS011;206;48.782;9.252;2022-09-13T03:44:02;8.37;;;5.77;;
438;SDS011;206;48.782;9.252;2022-09-13T03:46:34;10.70;;;6.33;;
438;SDS011;206;48.782;9.252;2022-09-13T03:49:13;7.03;;;5.90;;
438;SDS011;206;48.782;9.252;2022-09-13T03:51:41;8.90;;;6.60;;
438;SDS011;206;48.782;9.252;2022-09-13T03:54:11;11.30;;;6.20;;
438;SDS011;206;48.782;9.252;2022-09-13T03:56:41;9.80;;;6.70;;
438;SDS011;206;48.782;9.252;2022-09-13T03:59:06;9.07;;;6.90;;
438;SDS011;206;48.782;9.252;2022-09-13T04:01:32;8.80;;;6.30;;
438;SDS011;206;48.782;9.252;2022-09-13T04:03:58;10.87;;;7.07;;
438;SDS011;206;48.782;9.252;2022-09-13T04:06:23;10.20;;;6.07;;
438;SDS011;206;48.782;9.252;2022-09-13T04:08:49;7.93;;;6.17;;
438;SDS011;206;48.782;9.252;2022-09-13T04:11:14;5.70;;;4.73;;
438;SDS011;206;48.782;9.252;2022-09-13T04:13:40;11.43;;;5.90;;
438;SDS011;206;48.782;9.252;2022-09-13T04:16:06;8.07;;;6.03;;
438;SDS011;206;48.782;9.252;2022-09-13T04:18:33;11.63;;;6.03;;
438;SDS011;206;48.782;9.252;2022-09-13T04:20:59;6.67;;;6.27;;
438;SDS011;206;48.782;9.252;2022-09-13T04:23:26;11.40;;;6.37;;
438;SDS011;206;48.782;9.252;2022-09-13T04:25:53;9.83;;;7.23;;
438;SDS011;206;48.782;9.252;2022-09-13T04:28:19;11.67;;;6.43;;
438;SDS011;206;48.782;9.252;2022-09-13T04:30:46;8.77;;;6.03;;
438;SDS011;206;48.782;9.252;2022-09-13T04:33:13;8.40;;;5.70;;
438;SDS011;206;48.782;9.252;2022-09-13T04:35:41;10.00;;;6.47;;
438;SDS011;206;48.782;9.252;2022-09-13T04:38:07;11.00;;;6.40;;
438;SDS011;206;48.782;9.252;2022-09-13T04:40:33;11.83;;;6.13;;
438;SDS011;206;48.782;9.252;2022-09-13T04:43:00;8.67;;;7.03;;
438;SDS011;206;48.782;9.252;2022-09-13T04:45:26;8.30;;;6.60;;
438;SDS011;206;48.782;9.252;2022-09-13T04:47:55;6.93;;;5.37;;
438;SDS011;206;48.782;9.252;2022-09-13T04:50:22;5.57;;;4.37;;
438;SDS011;206;48.782;9.252;2022-09-13T04:52:48;6.50;;;5.17;;
438;SDS011;206;48.782;9.252;2022-09-13T04:55:15;6.97;;;5.20;;
438;SDS011;206;48.782;9.252;2022-09-13T04:57:40;6.97;;;5.03;;
438;SDS011;206;48.782;9.252;2022-09-13T05:00:06;5.40;;;5.10;;
438;SDS011;206;48.782;9.252;2022-09-13T05:02:33;6.53;;;4.70;;
438;SDS011;206;48.782;9.252;2022-09-13T05:04:59;7.83;;;4.90;;
438;SDS011;206;48.782;9.252;2022-09-13T05:07:24;6.67;;;4.97;;
438;SDS011;206;48.782;9.252;2022-09-13T05:09:50;7.43;;;5.00;;
438;SDS011;206;48.782;9.252;2022-09-13T05:12:15;6.77;;;5.20;;
438;SDS011;206;48.782;9.252;2022-09-13T05:14:41;7.57;;;6.50;;
438;SDS011;206;48.782;9.252;2022-09-13T05:17:07;8.30;;;6.60;;
438;SDS011;206;48.782;9.252;2022-09-13T05:19:32;7.50;;;6.00;;
438;SDS011;206;48.782;9.252;2022-09-13T05:21:59;8.50;;;5.50;;
438;SDS011;206;48.782;9.252;2022-09-13T05:24:25;7.07;;;5.73;;
438;SDS011;206;48.782;9.252;2022-09-13T05:26:50;9.93;;;5.77;;
438;SDS011;206;48.782;9.252;2022-09-13T05:29:16;10.13;;;5.70;;
438;SDS011;206;48.782;9.252;2022-09-13T05:31:42;13.73;;;5.87;;
438;SDS011;206;48.782;9.252;2022-09-13T05:34:11;10.17;;;6.80;;
438;SDS011;206;48.782;9.252;2022-09-13T05:36:39;12.87;;;6.20;;
438;SDS011;206;48.782;9.252;2022-09-13T05:39:06;9.93;;;6.63;;
438;SDS011;206;48.782;9.252;2022-09-13T05:41:36;11.20;;;6.50;;
438;SDS011;206;48.782;9.252;2022-09-13T05:44:01;15.93;;;7.47;;
438;SDS011;206;48.782;9.252;2022-09-13T05:46:27;14.50;;;7.00;;
438;SDS011;206;48.782;9.252;2022-09-13T05:48:56;13.33;;;7.33;;
438;SDS011;206;48.782;9.252;2022-09-13T05:51:22;9.77;;;6.07;;
438;SDS011;206;48.782;9.252;2022-09-13T05:53:49;10.57;;;6.60;;
438;SDS011;206;48.782;9.252;2022-09-13T05:56:17;7.80;;;4.40;;
438;SDS011;206;48.782;9.252;2022-09-13T05:58:47;8.77;;;5.37;;
438;SDS011;206;48.782;9.252;2022-09-13T06:01:14;10.97;;;7.40;;
438;SDS011;206;48.782;9.252;2022-09-13T06:03:41;8.00;;;6.63;;
438;SDS011;206;48.782;9.252;2022-09-13T06:06:08;9.87;;;6.10;;
438;SDS011;206;48.782;9.252;2022-09-13T06:08:35;10.30;;;6.07;;
438;SDS011;206;48.782;9.252;2022-09-13T06:11:02;7.50;;;5.60;;
438;SDS011;206;48.782;9.252;2022-09-13T06:13:29;14.33;;;6.43;;
438;SDS011;206;48.782;9.252;2022-09-13T06:15:56;7.30;;;5.67;;
438;SDS011;206;48.782;9.252;2022-09-13T06:18:23;7.03;;;4.97;;
438;SDS011;206;48.782;9.252;2022-09-13T06:20:50;8.07;;;5.33;;
438;SDS011;206;48.782;9.252;2022-09-13T06:23:21;8.27;;;4.67;;
438;SDS011;206;48.782;9.252;2022-09-13T06:25:46;11.10;;;5.87;;
438;SDS011;206;48.782;9.252;2022-09-13T06:28:12;9.80;;;4.87;;
438;SDS011;206;48.782;9.252;2022-09-13T06:30:37;8.07;;;4.63;;
438;SDS011;206;48.782;9.252;2022-09-13T06:33:03;7.37;;;5.00;;
438;SDS011;206;48.782;9.252;2022-09-13T06:35:28;11.03;;;5.60;;
438;SDS011;206;48.782;9.252;2022-09-13T06:37:54;9.17;;;5.17;;
438;SDS011;206;48.782;9.252;2022-09-13T06:40:24;17.70;;;5.70;;
438;SDS011;206;48.782;9.252;2022-09-13T06:42:50;7.53;;;5.83;;
438;SDS011;206;48.782;9.252;2022-09-13T06:45:15;8.17;;;4.60;;
438;SDS011;206;48.782;9.252;2022-09-13T06:47:42;9.27;;;5.43;;
438;SDS011;206;48.782;9.252;2022-09-13T06:50:08;9.87;;;5.53;;
438;SDS011;206;48.782;9.252;2022-09-13T06:52:34;6.87;;;4.77;;
438;SDS011;206;48.782;9.252;2022-09-13T06:54:59;9.07;;;4.43;;
438;SDS011;206;48.782;9.252;2022-09-13T06:57:25;4.97;;;3.90;;
438;SDS011;206;48.782;9.252;2022-09-13T06:59:53;5.40;;;3.93;;
438;SDS011;206;48.782;9.252;2022-09-13T07:02:19;4.10;;;3.73;;
438;SDS011;206;48.782;9.252;2022-09-13T07:04:44;8.70;;;4.27;;
438;SDS011;206;48.782;9.252;2022-09-13T07:07:10;5.00;;;4.37;;
438;SDS011;206;48.782;9.252;2022-09-13T07:09:36;5.67;;;4.30;;
438;SDS011;206;48.782;9.252;2022-09-13T07:12:03;4.53;;;3.73;;
438;SDS011;206;48.782;9.252;2022-09-13T07:14:30;8.30;;;4.70;;
438;SDS011;206;48.782;9.252;2022-09-13T07:16:56;6.13;;;3.40;;
438;SDS011;206;48.782;9.252;2022-09-13T07:19:25;4.73;;;3.50;;
438;SDS011;206;48.782;9.252;2022-09-13T07:21:52;5.07;;;3.73;;
438;SDS011;206;48.782;9.252;2022-09-13T07:24:18;8.93;;;3.77;;
438;SDS011;206;48.782;9.252;2022-09-13T07:26:45;4.40;;;3.33;;
438;SDS011;206;48.782;9.252;2022-09-13T07:29:12;11.63;;;3.70;;
438;SDS011;206;48.782;9.252;2022-09-13T07:31:40;5.40;;;3.70;;
438;SDS011;206;48.782;9.252;2022-09-13T07:34:15;4.10;;;3.27;;
438;SDS011;206;48.782;9.252;2022-09-13T07:36:42;3.67;;;3.50;;
438;SDS011;206;48.782;9.252;2022-09-13T07:39:10;4.00;;;3.40;;
438;SDS011;206;48.782;9.252;2022-09-13T07:41:36;4.73;;;3.53;;
438;SDS011;206;48.782;9.252;2022-09-13T07:44:02;13.00;;;3.90;;
438;SDS011;206;48.782;9.252;2022-09-13T07:46:30;8.03;;;4.20;;
438;SDS011;206;48.782;9.252;2022-09-13T07:48:57;4.87;;;3.27;;
438;SDS011;206;48.782;9.252;2022-09-13T07:51:25;6.70;;;3.70;;
438;SDS011;206;48.782;9.252;2022-09-13T07:53:56;5.07;;;3.70;;
438;SDS011;206;48.782;9.252;2022-09-13T07:56:25;6.63;;;3.10;;
438;SDS011;206;48.782;9.252;2022-09-13T07:58:54;7.10;;;3.80;;
438;SDS011;206;48.782;9.252;2022-09-13T08:01:25;3.27;;;3.07;;
438;SDS011;206;48.782;9.252;2022-09-13T08:03:56;4.00;;;3.43;;
438;SDS011;206;48.782;9.252;2022-09-13T08:06:24;4.07;;;2.67;;
438;SDS011;206;48.782;9.252;2022-09-13T08:08:51;8.13;;;3.50;;
438;SDS011;206;48.782;9.252;2022-09-13T08:11:18;3.80;;;2.90;;
438;SDS011;206;48.782;9.252;2022-09-13T08:13:46;5.90;;;3.00;;
438;SDS011;206;48.782;9.252;2022-09-13T08:16:13;4.53;;;2.60;;
438;SDS011;206;48.782;9.252;2022-09-13T08:18:45;4.80;;;2.60;;
438;SDS011;206;48.782;9.252;2022-09-13T08:21:12;6.30;;;3.37;;
438;SDS011;206;48.782;9.252;2022-09-13T08:23:38;4.47;;;2.90;;
438;SDS011;206;48.782;9.252;2022-09-13T08:26:04;5.07;;;2.50;;
438;SDS011;206;48.782;9.252;2022-09-13T08:28:32;3.33;;;2.30;;
438;SDS011;206;48.782;9.252;2022-09-13T08:31:05;8.80;;;2.67;;
438;SDS011;206;48.782;9.252;2022-09-13T08:33:33;5.77;;;3.57;;
438;SDS011;206;48.782;9.252;2022-09-13T08:35:59;4.93;;;2.83;;
438;SDS011;206;48.782;9.252;2022-09-13T08:38:25;3.63;;;3.00;;
438;SDS011;206;48.782;9.252;2022-09-13T08:40:59;11.13;;;2.70;;
438;SDS011;206;48.782;9.252;2022-09-13T08:43:48;5.60;;;2.10;;
438;SDS011;206;48.782;9.252;2022-09-13T08:46:36;4.10;;;2.90;;
438;SDS011;206;48.782;9.252;2022-09-13T08:49:07;3.40;;;2.40;;
438;SDS011;206;48.782;9.252;2022-09-13T08:52:22;4.80;;;2.33;;
438;SDS011;206;48.782;9.252;2022-09-13T08:54:50;6.70;;;2.80;;
438;SDS011;206;48.782;9.252;2022-09-13T08:57:19;4.23;;;2.70;;
438;SDS011;206;48.782;9.252;2022-09-13T08:59:59;3.97;;;3.10;;
438;SDS011;206;48.782;9.252;2022-09-13T09:02:35;4.03;;;2.87;;
438;SDS011;206;48.782;9.252;2022-09-13T09:05:24;4.53;;;2.87;;
438;SDS011;206;48.782;9.252;2022-09-13T09:12:53;4.43;;;3.00;;
438;SDS011;206;48.782;9.252;2022-09-13T09:15:29;5.77;;;3.13;;
438;SDS011;206;48.782;9.252;2022-09-13T09:20:41;3.67;;;2.13;;
438;SDS011;206;48.782;9.252;2022-09-13T09:25:41;3.30;;;1.90;;
438;SDS011;206;48.782;9.252;2022-09-13T09:28:16;4.10;;;2.80;;
438;SDS011;206;48.782;9.252;2022-09-13T09:36:22;9.00;;;2.10;;
438;SDS011;206;48.782;9.252;2022-09-13T09:38:49;3.47;;;1.90;;
438;SDS011;206;48.782;9.252;2022-09-13T09:46:35;3.10;;;2.33;;
438;SDS011;206;48.782;9.252;2022-09-13T09:49:06;2.43;;;1.97;;
438;SDS011;206;48.782;9.252;2022-09-13T09:51:59;4.77;;;1.80;;
438;SDS011;206;48.782;9.252;2022-09-13T09:54:32;2.57;;;2.00;;
438;SDS011;206;48.782;9.252;2022-09-13T09:56:59;6.50;;;2.03;;
438;SDS011;206;48.782;9.252;2022-09-13T09:59:29;10.20;;;3.00;;
438;SDS011;206;48.782;9.252;2022-09-13T10:02:00;6.23;;;1.90;;
438;SDS011;206;48.782;9.252;2022-09-13T10:04:38;5.97;;;2.53;;
438;SDS011;206;48.782;9.252;2022-09-13T10:09:55;2.17;;;1.70;;
438;SDS011;206;48.782;9.252;2022-09-13T10:12:26;3.97;;;2.53;;
438;SDS011;206;48.782;9.252;2022-09-13T10:15:02;3.63;;;2.50;;
438;SDS011;206;48.782;9.252;2022-09-13T10:17:40;7.37;;;3.60;;
438;SDS011;206;48.782;9.252;2022-09-13T10:22:37;6.07;;;3.17;;
438;SDS011;206;48.782;9.252;2022-09-13T10:25:22;12.10;;;2.63;;
438;SDS011;206;48.782;9.252;2022-09-13T10:27:55;3.30;;;1.83;;
438;SDS011;206;48.782;9.252;2022-09-13T10:30:36;5.20;;;2.20;;
438;SDS011;206;48.782;9.252;2022-09-13T10:33:05;3.40;;;1.93;;
438;SDS011;206;48.782;9.252;2022-09-13T10:35:46;3.67;;;1.90;;
438;SDS011;206;48.782;9.252;2022-09-13T10:38:33;7.70;;;1.97;;
438;SDS011;206;48.782;9.252;2022-09-13T10:41:02;5.23;;;1.50;;
438;SDS011;206;48.782;9.252;2022-09-13T10:43:31;2.70;;;2.00;;
438;SDS011;206;48.782;9.252;2022-09-13T10:45:58;2.33;;;1.70;;
438;SDS011;206;48.782;9.252;2022-09-13T10:48:27;1.90;;;1.80;;
438;SDS011;206;48.782;9.252;2022-09-13T10:53:42;3.53;;;2.10;;
438;SDS011;206;48.782;9.252;2022-09-13T10:56:28;2.07;;;1.30;;
438;SDS011;206;48.782;9.252;2022-09-13T11:09:50;1.57;;;1.40;;
438;SDS011;206;48.782;9.252;2022-09-13T11:15:16;2.87;;;1.40;;
438;SDS011;206;48.782;9.252;2022-09-13T11:18:08;1.93;;;0.90;;
438;SDS011;206;48.782;9.252;2022-09-13T11:20:54;7.47;;;1.63;;
438;SDS011;206;48.782;9.252;2022-09-13T11:23:47;1.93;;;1.07;;
438;SDS011;206;48.782;9.252;2022-09-13T11:26:37;2.53;;;1.33;;
438;SDS011;206;48.782;9.252;2022-09-13T11:29:23;3.13;;;1.77;;
438;SDS011;206;48.782;9.252;2022-09-13T11:56:40;11.93;;;1.97;;
438;SDS011;206;48.782;9.252;2022-09-13T12:02:02;3.30;;;1.10;;
438;SDS011;206;48.782;9.252;2022-09-13T12:04:44;4.90;;;1.20;;
438;SDS011;206;48.782;9.252;2022-09-13T12:07:28;1.27;;;1.20;;
438;SDS011;206;48.782;9.252;2022-09-13T12:10:03;3.70;;;1.57;;
438;SDS011;206;48.782;9.252;2022-09-13T12:12:37;1.00;;;0.93;;
438;SDS011;206;48.782;9.252;2022-09-13T12:15:05;1.57;;;0.80;;
438;SDS011;206;48.782;9.252;2022-09-13T12:17:40;1.23;;;0.90;;
438;SDS011;206;48.782;9.252;2022-09-13T12:20:29;2.80;;;0.90;;
438;SDS011;206;48.782;9.252;2022-09-13T12:23:21;0.90;;;0.80;;
438;SDS011;206;48.782;9.252;2022-09-13T12:25:57;0.80;;;0.63;;
438;SDS011;206;48.782;9.252;2022-09-13T12:31:09;1.10;;;0.93;;
438;SDS011;206;48.782;9.252;2022-09-13T12:33:40;2.93;;;1.00;;
438;SDS011;206;48.782;9.252;2022-09-13T12:44:40;2.10;;;0.90;;
438;SDS011;206;48.782;9.252;2022-09-13T12:47:37;1.67;;;1.10;;
438;SDS011;206;48.782;9.252;2022-09-13T13:01:47;0.80;;;0.70;;
438;SDS011;206;48.782;9.252;2022-09-13T13:07:04;1.70;;;0.90;;
438;SDS011;206;48.782;9.252;2022-09-13T13:12:30;1.23;;;1.17;;
438;SDS011;206;48.782;9.252;2022-09-13T13:15:02;2.47;;;0.80;;
438;SDS011;206;48.782;9.252;2022-09-13T13:17:52;1.17;;;0.90;;
438;SDS011;206;48.782;9.252;2022-09-13T13:23:23;1.57;;;1.00;;
438;SDS011;206;48.782;9.252;2022-09-13T13:34:39;1.10;;;0.63;;
438;SDS011;206;48.782;9.252;2022-09-13T13:44:55;0.73;;;0.60;;
438;SDS011;206;48.782;9.252;2022-09-13T13:58:14;0.80;;;0.80;;
438;SDS011;206;48.782;9.252;2022-09-13T14:00:51;2.20;;;0.90;;
438;SDS011;206;48.782;9.252;2022-09-13T14:20:24;1.87;;;0.70;;
438;SDS011;206;48.782;9.252;2022-09-13T14:22:50;0.90;;;0.80;;
438;SDS011;206;48.782;9.252;2022-09-13T14:25:34;4.07;;;1.00;;
438;SDS011;206;48.782;9.252;2022-09-13T14:28:00;3.87;;;1.23;;
438;SDS011;206;48.782;9.252;2022-09-13T14:30:28;1.67;;;0.90;;
438;SDS011;206;48.782;9.252;2022-09-13T14:32:58;3.40;;;1.03;;
438;SDS011;206;48.782;9.252;2022-09-13T14:35:32;1.80;;;1.20;;
438;SDS011;206;48.782;9.252;2022-09-13T14:38:15;1.70;;;1.10;;
438;SDS011;206;48.782;9.252;2022-09-13T14:40:53;1.67;;;1.00;;
438;SDS011;206;48.782;9.252;2022-09-13T14:43:24;1.50;;;1.33;;
438;SDS011;206;48.782;9.252;2022-09-13T14:46:36;2.80;;;1.20;;
438;SDS011;206;48.782;9.252;2022-09-13T14:48:48;2.80;;;1.03;;
438;SDS011;206;48.782;9.252;2022-09-13T14:51:31;1.13;;;0.93;;
438;SDS011;206;48.782;9.252;2022-09-13T14:54:06;1.63;;;1.53;;
438;SDS011;206;48.782;9.252;2022-09-13T14:56:43;3.07;;;1.33;;
438;SDS011;206;48.782;9.252;2022-09-13T14:59:15;4.30;;;1.10;;
438;SDS011;206;48.782;9.252;2022-09-13T15:01:50;1.30;;;1.00;;
438;SDS011;206;48.782;9.252;2022-09-13T15:04:15;1.13;;;0.70;;
438;SDS011;206;48.782;9.252;2022-09-13T15:06:42;1.07;;;0.93;;
438;SDS011;206;48.782;9.252;2022-09-13T15:11:35;1.47;;;1.17;;
438;SDS011;206;48.782;9.252;2022-09-13T15:14:28;1.63;;;0.70;;
438;SDS011;206;48.782;9.252;2022-09-13T15:19:37;1.10;;;1.00;;
438;SDS011;206;48.782;9.252;2022-09-13T15:24:43;1.67;;;1.00;;
438;SDS011;206;48.782;9.252;2022-09-13T15:27:26;6.43;;;1.13;;
438;SDS011;206;48.782;9.252;2022-09-13T15:30:25;2.17;;;1.40;;
438;SDS011;206;48.782;9.252;2022-09-13T15:33:12;1.70;;;1.10;;
438;SDS011;206;48.782;9.252;2022-09-13T15:35:42;1.80;;;1.10;;
438;SDS011;206;48.782;9.252;2022-09-13T15:43:25;1.57;;;0.80;;
438;SDS011;206;48.782;9.252;2022-09-13T15:45:50;1.40;;;1.07;;
438;SDS011;206;48.782;9.252;2022-09-13T15:48:34;0.93;;;0.87;;
438;SDS011;206;48.782;9.252;2022-09-13T15:51:11;0.97;;;0.93;;
438;SDS011;206;48.782;9.252;2022-09-13T15:53:39;0.80;;;0.77;;
438;SDS011;206;48.782;9.252;2022-09-13T15:56:06;1.47;;;1.10;;
438;SDS011;206;48.782;9.252;2022-09-13T15:58:36;2.73;;;0.70;;
438;SDS011;206;48.782;9.252;2022-09-13T16:01:02;4.43;;;3.73;;
438;SDS011;206;48.782;9.252;2022-09-13T16:03:28;1.60;;;1.40;;
438;SDS011;206;48.782;9.252;2022-09-13T16:05:53;2.23;;;1.10;;
438;SDS011;206;48.782;9.252;2022-09-13T16:08:19;1.50;;;1.00;;
438;SDS011;206;48.782;9.252;2022-09-13T16:10:45;1.00;;;0.97;;
438;SDS011;206;48.782;9.252;2022-09-13T16:13:11;1.20;;;0.90;;
438;SDS011;206;48.782;9.252;2022-09-13T16:15:36;1.20;;;0.90;;
438;SDS011;206;48.782;9.252;2022-09-13T16:18:02;1.07;;;1.00;;
438;SDS011;206;48.782;9.252;2022-09-13T16:20:28;4.90;;;1.17;;
438;SDS011;206;48.782;9.252;2022-09-13T16:22:54;1.87;;;1.73;;
438;SDS011;206;48.782;9.252;2022-09-13T16:25:19;3.87;;;1.60;;
438;SDS011;206;48.782;9.252;2022-09-13T16:27:45;1.40;;;0.93;;
438;SDS011;206;48.782;9.252;2022-09-13T16:30:15;1.97;;;1.23;;
438;SDS011;206;48.782;9.252;2022-09-13T16:32:43;1.63;;;1.53;;
438;SDS011;206;48.782;9.252;2022-09-13T16:35:10;3.30;;;1.30;;
438;SDS011;206;48.782;9.252;2022-09-13T16:37:36;2.37;;;1.40;;
438;SDS011;206;48.782;9.252;2022-09-13T16:40:03;2.73;;;1.40;;
438;SDS011;206;48.782;9.252;2022-09-13T16:42:30;6.13;;;1.53;;
438;SDS011;206;48.782;9.252;2022-09-13T16:44:56;1.60;;;1.20;;
438;SDS011;206;48.782;9.252;2022-09-13T16:47:22;2.20;;;2.10;;
438;SDS011;206;48.782;9.252;2022-09-13T16:49:48;4.00;;;2.10;;
438;SDS011;206;48.782;9.252;2022-09-13T16:52:14;3.10;;;2.60;;
438;SDS011;206;48.782;9.252;2022-09-13T16:54:39;2.00;;;1.53;;
438;SDS011;206;48.782;9.252;2022-09-13T16:57:06;2.10;;;0.97;;
438;SDS011;206;48.782;9.252;2022-09-13T16:59:34;1.37;;;1.30;;
438;SDS011;206;48.782;9.252;2022-09-13T17:01:59;6.10;;;1.10;;
438;SDS011;206;48.782;9.252;2022-09-13T17:04:25;2.43;;;1.03;;
438;SDS011;206;48.782;9.252;2022-09-13T17:06:51;1.27;;;1.20;;
438;SDS011;206;48.782;9.252;2022-09-13T17:09:16;2.17;;;2.00;;
438;SDS011;206;48.782;9.252;2022-09-13T17:11:45;1.30;;;1.23;;
438;SDS011;206;48.782;9.252;2022-09-13T17:14:11;2.93;;;1.80;;
438;SDS011;206;48.782;9.252;2022-09-13T17:16:47;1.87;;;1.83;;
438;SDS011;206;48.782;9.252;2022-09-13T17:19:18;2.07;;;1.30;;
438;SDS011;206;48.782;9.252;2022-09-13T17:21:46;5.03;;;2.00;;
438;SDS011;206;48.782;9.252;2022-09-13T17:24:12;1.47;;;1.27;;
438;SDS011;206;48.782;9.252;2022-09-13T17:26:38;6.00;;;2.03;;
438;SDS011;206;48.782;9.252;2022-09-13T17:29:04;7.53;;;4.13;;
438;SDS011;206;48.782;9.252;2022-09-13T17:31:29;6.20;;;2.33;;
438;SDS011;206;48.782;9.252;2022-09-13T17:33:55;5.60;;;3.07;;
438;SDS011;206;48.782;9.252;2022-09-13T17:36:21;5.43;;;3.07;;
438;SDS011;206;48.782;9.252;2022-09-13T17:38:46;6.80;;;3.53;;
438;SDS011;206;48.782;9.252;2022-09-13T17:41:14;7.90;;;2.67;;
438;SDS011;206;48.782;9.252;2022-09-13T17:43:41;13.27;;;3.57;;
438;SDS011;206;48.782;9.252;2022-09-13T17:46:11;9.60;;;3.60;;
438;SDS011;206;48.782;9.252;2022-09-13T17:48:39;8.90;;;3.60;;
438;SDS011;206;48.782;9.252;2022-09-13T17:51:06;10.63;;;4.70;;
438;SDS011;206;48.782;9.252;2022-09-13T17:53:46;5.33;;;3.70;;
438;SDS011;206;48.782;9.252;2022-09-13T17:56:17;4.87;;;2.27;;
438;SDS011;206;48.782;9.252;2022-09-13T17:58:49;3.70;;;2.27;;
438;SDS011;206;48.782;9.252;2022-09-13T18:01:15;3.43;;;2.53;;
438;SDS011;206;48.782;9.252;2022-09-13T18:03:42;3.70;;;3.00;;
438;SDS011;206;48.782;9.252;2022-09-13T18:06:09;4.67;;;2.40;;
438;SDS011;206;48.782;9.252;2022-09-13T18:08:53;2.90;;;2.50;;
438;SDS011;206;48.782;9.252;2022-09-13T18:11:23;4.03;;;2.40;;
438;SDS011;206;48.782;9.252;2022-09-13T18:13:49;5.83;;;2.90;;
438;SDS011;206;48.782;9.252;2022-09-13T18:16:16;2.63;;;2.30;;
438;SDS011;206;48.782;9.252;2022-09-13T18:18:45;2.63;;;1.97;;
438;SDS011;206;48.782;9.252;2022-09-13T18:21:11;11.43;;;3.00;;
438;SDS011;206;48.782;9.252;2022-09-13T18:23:45;5.83;;;2.53;;
438;SDS011;206;48.782;9.252;2022-09-13T18:26:12;3.00;;;2.40;;
438;SDS011;206;48.782;9.252;2022-09-13T18:28:39;4.43;;;2.80;;
438;SDS011;206;48.782;9.252;2022-09-13T18:31:07;3.33;;;2.63;;
438;SDS011;206;48.782;9.252;2022-09-13T18:33:35;6.20;;;2.80;;
438;SDS011;206;48.782;9.252;2022-09-13T18:36:08;3.53;;;3.30;;
438;SDS011;206;48.782;9.252;2022-09-13T18:38:42;4.03;;;2.37;;
438;SDS011;206;48.782;9.252;2022-09-13T18:41:10;5.00;;;3.00;;
438;SDS011;206;48.782;9.252;2022-09-13T18:43:36;3.83;;;3.10;;
438;SDS011;206;48.782;9.252;2022-09-13T18:46:04;3.97;;;3.07;;
438;SDS011;206;48.782;9.252;2022-09-13T18:48:35;4.07;;;3.87;;
438;SDS011;206;48.782;9.252;2022-09-13T18:51:07;4.00;;;2.70;;
438;SDS011;206;48.782;9.252;2022-09-13T18:53:37;4.23;;;3.13;;
438;SDS011;206;48.782;9.252;2022-09-13T18:56:04;2.97;;;2.77;;
438;SDS011;206;48.782;9.252;2022-09-13T18:58:34;2.93;;;2.80;;
438;SDS011;206;48.782;9.252;2022-09-13T19:01:09;5.03;;;2.20;;
438;SDS011;206;48.782;9.252;2022-09-13T19:04:04;4.87;;;3.53;;
438;SDS011;206;48.782;9.252;2022-09-13T19:06:32;6.13;;;3.57;;
438;SDS011;206;48.782;9.252;2022-09-13T19:09:00;5.23;;;3.40;;
438;SDS011;206;48.782;9.252;2022-09-13T19:11:27;5.37;;;3.83;;
438;SDS011;206;48.782;9.252;2022-09-13T19:13:57;3.03;;;2.70;;
438;SDS011;206;48.782;9.252;2022-09-13T19:16:23;3.60;;;2.50;;
438;SDS011;206;48.782;9.252;2022-09-13T19:18:50;4.03;;;3.57;;
438;SDS011;206;48.782;9.252;2022-09-13T19:21:17;5.43;;;2.93;;
438;SDS011;206;48.782;9.252;2022-09-13T19:23:48;2.37;;;2.00;;
438;SDS011;206;48.782;9.252;2022-09-13T19:28:48;2.90;;;2.13;;
438;SDS011;206;48.782;9.252;2022-09-13T19:31:16;4.87;;;3.00;;
438;SDS011;206;48.782;9.252;2022-09-13T19:33:43;2.90;;;2.67;;
438;SDS011;206;48.782;9.252;2022-09-13T19:36:11;4.60;;;2.40;;
438;SDS011;206;48.782;9.252;2022-09-13T19:38:39;3.63;;;1.83;;
438;SDS011;206;48.782;9.252;2022-09-13T19:41:06;4.10;;;2.60;;